Station: Coonawarra

  Atmospheric Gas Attenuation - ITU Rec 676-11   --------------- db/100km ---------------
Date Time Temp RH % AH g/m3 Dew Point Wind Direction Speed kph Gust kph Barometer mB Rainfall Since 9am 24GHz 47GHz 76GHz 122GHz 134GHz 241GHz
03 07:50 14.2 77 9.4 10.2 9 11 1021.5 0 21.3 27.4 43.2 113.5 109.3 376.6
03 07:40 13.6 78 9.18 9.9 7 9 1021.3 0 20.8 27.2 42.6 111.9 107.1 368.9
03 07:30 13.6 80 9.42 10.3 7 11 1021.1 0 21.3 27.6 43.6 114.5 110.4 380.3
03 07:20 12.8 82 9.19 9.9 7 9 1021.1 0 20.9 27.5 43.1 113.1 108.4 373.1
03 07:10 11.9 85 9 9.5 6 7 1021 0 20.5 27.4 42.8 112.3 107.0 368.2
03 07:00 11 87 8.71 9 0 0 1020.8 0 20.0 27.2 42.0 110.3 104.2 358.3
03 06:50 10.5 90 8.73 8.9 0 2 1020.8 0 20.0 27.4 42.4 111.2 105.2 361.6
03 06:40 10.3 90 8.62 8.7 6 7 1020.7 0 19.8 27.3 42.0 110.3 103.9 357.1
03 06:30 10 91 8.55 8.6 2 6 1020.5 0 19.7 27.2 41.9 109.9 103.3 355.0
03 06:20 9.6 92 8.43 8.4 0 0 1020.5 0 19.4 27.1 41.6 109.1 102.2 351.0
03 06:10 9.1 93 8.25 8.1 0 0 1020.4 0 19.1 27.0 41.1 107.7 100.3 344.4
03 06:00 8.8 91 7.92 7.5 6 7 1020.3 0 18.4 26.5 39.8 104.4 96.1 329.6
03 05:50 8.3 91 7.67 7 4 6 1020.4 0 17.8 26.2 39.0 102.3 93.2 319.6
03 05:40 7.7 91 7.38 6.4 7 9 1020.4 0 17.2 25.9 38.1 99.8 89.9 307.9
03 05:30 7.4 91 7.24 6.1 4 7 1020.1 0 17.0 25.8 37.7 98.6 88.3 302.3
03 05:20 7.4 93 7.4 6.3 6 7 1020.1 0 17.3 26.0 38.3 100.4 90.5 310.0
03 05:00 7.8 91 7.43 6.5 6 7 1019.8 0 17.4 26.0 38.3 100.2 90.5 309.8
03 04:50 8 90 7.44 6.5 7 7 1019.9 0 17.4 25.9 38.2 100.0 90.4 309.5
03 04:40 8.3 89 7.5 6.6 7 9 1019.8 0 17.5 25.9 38.3 100.3 90.8 311.2
03 04:30 8.6 90 7.74 7.1 7 9 1019.7 0 18.0 26.2 39.2 102.6 93.8 321.5
03 04:20 9 90 7.94 7.5 7 7 1019.7 0 18.4 26.5 39.8 104.3 96.0 329.5
03 04:10 8.9 89 7.8 7.2 7 7 1019.7 0 18.1 26.3 39.3 102.9 94.2 323.2
03 04:00 8.5 89 7.6 6.8 6 7 1019.6 0 17.7 26.0 38.6 101.1 92.0 315.2
03 03:50 8.9 89 7.8 7.2 6 7 1019.6 0 18.1 26.3 39.3 102.8 94.2 323.2
03 03:40 9.3 88 7.91 7.4 4 6 1019.6 0 18.3 26.3 39.5 103.5 95.3 326.8
03 03:30 9.4 87 7.87 7.3 2 7 1019.5 0 18.2 26.2 39.3 103.0 94.6 324.4
03 03:20 9 89 7.85 7.3 6 7 1019.5 0 18.2 26.3 39.4 103.3 94.8 325.1
03 03:10 9 89 7.85 7.3 4 6 1019.5 0 18.2 26.3 39.4 103.3 94.8 325.1
03 03:00 8.8 89 7.75 7.1 6 7 1019.4 0 18.0 26.2 39.1 102.4 93.6 321.1
03 02:50 8.5 91 7.77 7.2 6 6 1019.5 0 18.1 26.3 39.3 103.0 94.3 323.3
03 02:40 8.5 90 7.69 7 7 7 1019.5 0 17.9 26.2 39.0 102.1 93.2 319.5
03 02:30 8 90 7.44 6.5 6 7 1019.6 0 17.4 25.9 38.2 100.0 90.4 309.5
03 02:20 7.5 93 7.45 6.4 6 6 1019.8 0 17.4 26.1 38.5 100.8 91.1 312.0
03 02:10 7.7 90 7.3 6.2 9 9 1019.7 0 17.1 25.8 37.8 98.8 88.8 303.9
03 02:00 7.5 90 7.21 5.9 7 9 1019.7 0 16.9 25.7 37.5 98.1 87.8 300.4
03 01:50 7.3 88 6.96 5.5 7 9 1019.8 0 16.4 25.3 36.5 95.6 84.6 289.2
03 01:40 7.1 93 7.26 6 7 7 1019.9 0 17.0 25.9 37.9 99.2 88.9 304.4
03 01:30 7.5 91 7.29 6.2 0 0 1019.8 0 17.1 25.8 37.8 99.0 88.9 304.2
03 01:20 7.8 91 7.43 6.5 0 0 1019.8 0 17.4 26.0 38.3 100.2 90.5 309.8
03 01:10 8 91 7.53 6.7 2 6 1019.8 0 17.6 26.1 38.6 101.0 91.6 313.8
03 01:00 8.4 89 7.55 6.7 9 9 1019.6 0 17.6 26.0 38.5 100.7 91.4 313.2
03 00:50 8 90 7.44 6.5 7 7 1019.7 0 17.4 25.9 38.2 100.0 90.4 309.5
03 00:40 7.3 89 7.04 5.7 0 4 1019.8 0 16.5 25.5 36.9 96.5 85.7 293.0
03 00:30 6.8 91 6.96 5.4 0 0 1019.8 0 16.4 25.5 36.8 96.2 85.1 291.0
03 00:20 7 86 6.67 4.9 0 0 1020 0 15.7 24.9 35.5 92.8 81.0 276.5
03 00:10 7.1 88 6.87 5.3 0 0 1020 0 16.2 25.2 36.3 94.8 83.6 285.6
03 00:00 7.3 87 6.88 5.3 0 0 1020 0 16.2 25.2 36.2 94.7 83.5 285.4
02 23:50 7.7 87 7.06 5.7 0 0 1020.2 0 16.6 25.4 36.8 96.2 85.5 292.5
02 23:40 7.8 86 7.02 5.6 0 0 1020.3 0 16.5 25.3 36.6 95.7 84.9 290.3
02 23:30 8.2 86 7.21 6 0 0 1020.1 0 16.9 25.5 37.2 97.2 87.0 297.8
02 23:20 8.7 88 7.61 6.8 0 0 1020.2 0 17.7 26.0 38.6 101.1 91.9 315.0
02 23:10 9.1 85 7.54 6.7 0 0 1020.1 0 17.5 25.8 38.1 99.8 90.5 310.0
02 23:00 9.5 87 7.92 7.4 0 0 1019.9 0 18.3 26.3 39.5 103.4 95.2 326.5
02 22:50 10.2 84 8 7.7 0 0 1020.1 0 18.5 26.2 39.5 103.4 95.4 327.5
02 22:40 10.5 81 7.86 7.4 0 0 1020 0 18.2 25.9 38.7 101.5 93.1 319.5
02 22:30 10.2 84 8 7.7 0 0 1019.7 0 18.5 26.2 39.4 103.4 95.4 327.4
02 22:20 9.8 85 7.89 7.5 0 4 1019.8 0 18.3 26.1 39.2 102.7 94.4 323.8
02 22:10 9.5 84 7.65 6.9 0 0 1019.8 0 17.7 25.8 38.3 100.4 91.5 313.6
02 22:00 9.3 84 7.55 6.7 7 7 1019.6 0 17.5 25.7 38.0 99.6 90.3 309.6
02 21:50 9.8 81 7.52 6.8 6 7 1019.6 0 17.5 25.5 37.7 98.6 89.3 306.2
02 21:40 10.2 79 7.52 6.8 6 7 1019.5 0 17.4 25.4 37.5 98.1 88.9 304.6
02 21:30 10.7 77 7.56 6.9 9 11 1019.4 0 17.5 25.3 37.4 97.9 88.8 304.5
02 21:20 11.6 73 7.59 7 9 9 1019.3 0 17.5 25.1 37.1 97.1 88.2 302.4
02 21:10 11.8 71 7.47 6.8 9 11 1019.2 0 17.3 24.9 36.5 95.6 86.4 296.1
02 21:00 12.1 70 7.51 6.9 9 13 1018.9 0 17.3 24.8 36.5 95.6 86.6 296.7
02 20:50 12.6 66 7.3 6.5 9 11 1018.9 0 16.9 24.4 35.5 92.8 83.3 285.4
02 20:40 13 64 7.26 6.3 13 17 1018.8 0 16.8 24.2 35.1 91.9 82.4 282.1
02 20:30 13.3 63 7.28 6.4 17 22 1018.5 0 16.8 24.1 35.1 91.7 82.3 281.9
02 20:20 13.5 61 7.14 6.1 15 19 1018.6 0 16.5 23.9 34.4 90.1 80.3 275.0
02 20:10 13.7 60 7.11 6.2 17 20 1018.5 0 16.4 23.8 34.2 89.5 79.7 273.0
02 20:00 14.2 58 7.08 6 20 26 1018.3 0 16.3 23.6 33.9 88.7 78.8 269.9
02 19:50 14.6 56 7.01 6 19 22 1018.2 0 16.2 23.4 33.5 87.5 77.6 265.5
02 19:40 15.1 54 6.97 5.9 24 28 1018.1 0 16.1 23.2 33.1 86.6 76.6 262.1
02 19:30 15.4 54 7.09 6.1 24 35 1017.9 0 16.3 23.3 33.4 87.4 77.7 266.2
02 19:20 15.4 56 7.36 6.8 24 30 1017.9 0 16.9 23.7 34.4 90.1 81.1 277.9
02 19:10 15.9 56 7.58 7.2 24 28 1017.7 0 17.3 23.9 35.0 91.7 83.3 285.7
02 19:00 16.5 53 7.44 7 24 33 1017.4 0 17.0 23.5 34.3 89.6 80.9 277.4
02 18:50 16.9 51 7.33 6.8 28 35 1017.4 0 16.7 23.2 33.7 88.1 79.1 271.4
02 18:40 17.1 51 7.42 7.1 20 26 1017.2 0 16.9 23.3 33.9 88.7 80.0 274.5
02 18:30 17 52 7.52 7.2 24 35 1016.9 0 17.1 23.5 34.3 89.8 81.3 279.0
02 18:20 17 52 7.52 7.2 30 37 1016.9 0 17.1 23.5 34.3 89.8 81.3 279.0
02 18:10 17.6 50 7.5 7.2 30 35 1016.7 0 17.1 23.3 34.0 88.9 80.4 276.0
02 18:00 18.3 50 7.82 7.7 22 33 1016.4 0 17.7 23.6 34.8 91.2 83.6 287.1
02 17:50 18.3 49 7.66 7.4 22 28 1016.5 0 17.4 23.3 34.3 89.7 81.6 280.3
02 17:40 18.1 49 7.57 7.4 28 30 1016.4 0 17.2 23.2 34.0 89.0 80.8 277.2
02 17:30 18 49 7.53 7.3 30 43 1016.2 0 17.1 23.2 33.9 88.7 80.4 275.8
02 17:20 18.5 49 7.75 7.7 32 39 1016.2 0 17.6 23.4 34.5 90.3 82.5 283.4
02 17:10 18.8 49 7.89 8.1 30 41 1016 0 17.9 23.5 34.9 91.3 83.9 288.2
02 17:00 19.2 49 8.08 8.4 28 41 1015.9 0 18.2 23.7 35.4 92.7 85.7 294.7
02 16:50 19.2 50 8.24 8.7 37 43 1015.9 0 18.6 23.9 36.0 94.3 87.7 301.5
02 16:40 18.7 54 8.64 9.4 24 30 1015.8 0 19.4 24.7 37.7 98.9 93.1 320.6
02 16:30 20.2 51 8.92 9.7 30 41 1015.5 0 20.0 24.7 38.0 99.8 94.8 326.6
02 16:20 20.7 51 9.18 10.2 33 39 1015.5 0 20.5 24.9 38.8 101.7 97.3 335.7
02 16:10 20.8 51 9.23 10.3 26 32 1015.3 0 20.6 25.0 38.9 102.1 97.8 337.3
02 16:00 21.3 50 9.32 10.7 28 43 1014.9 0 20.7 25.0 39.0 102.3 98.3 339.0
02 15:50 21 52 9.52 11 22 32 1015 0 21.2 25.3 39.9 104.7 101.1 348.9
02 15:40 22.2 50 9.82 11.5 20 28 1014.8 0 21.8 25.5 40.4 106.1 103.3 356.5
02 15:30 21.1 54 9.95 11.6 24 35 1014.7 0 22.1 26.0 41.4 108.9 106.3 367.1
02 15:20 22.3 52 10.27 12 24 30 1014.5 0 22.7 26.1 42.0 110.5 108.7 375.5
02 15:10 23 51 10.48 12.3 22 32 1014.5 0 23.1 26.2 42.4 111.6 110.3 381.3

Last Refresh: 03-Dec-2021 08:05:16

Bureau of Meteorology